Time;durP1;ratioP1;P1;durP2;ratioP2;P2;SDS_P1;SDS_P2;PMS_P1;PMS_P2;Temp;Humidity;BMP_temperature;BMP_pressure;BME280_temperature;BME280_humidity;BME280_pressure;Samples;Min_cycle;Max_cycle;Signal;HPM_P1;HPM_P2
2024/01/20 00:00:16;;;;;;;;;23.67;23.00;;;;;2.99;61.71;102438.97;5051159;28;44927;-79
2024/01/20 00:02:41;;;;;;;;;17.00;16.00;;;;;2.91;61.69;102417.38;5054743;28;44896;-80
2024/01/20 00:05:07;;;;;;;;;22.33;18.00;;;;;2.96;61.75;102433.81;5054280;28;45138;-78
2024/01/20 00:07:33;;;;;;;;;19.67;16.67;;;;;3.04;61.52;102432.66;5051250;28;45076;-81
2024/01/20 00:09:58;;;;;;;;;19.67;18.33;;;;;3.09;61.27;102426.38;5049590;28;44969;-82
2024/01/20 00:12:24;;;;;;;;;18.00;17.00;;;;;3.09;61.21;102419.34;5050830;28;45112;-81
2024/01/20 00:14:50;;;;;;;;;13.00;10.67;;;;;3.02;61.25;102423.09;5049668;28;45434;-81
2024/01/20 00:17:15;;;;;;;;;15.67;14.67;;;;;2.70;61.36;102388.31;5053357;28;45056;-80
2024/01/20 00:19:41;;;;;;;;;29.00;23.33;;;;;2.94;61.10;102433.88;5034579;28;45317;-79
2024/01/20 00:22:06;;;;;;;;;28.00;24.33;;;;;2.92;61.13;102432.22;5035272;28;45489;-80
2024/01/20 00:24:32;;;;;;;;;30.00;23.00;;;;;2.70;61.72;102390.94;5054097;28;45030;-79
2024/01/20 00:26:57;;;;;;;;;20.67;16.67;;;;;2.99;61.21;102438.97;5051195;28;45061;-78
2024/01/20 00:29:22;;;;;;;;;25.00;21.33;;;;;2.58;61.69;102365.09;5047140;28;45184;-80
2024/01/20 00:31:48;;;;;;;;;20.67;19.00;;;;;2.91;61.15;102420.00;5053513;28;45059;-77
2024/01/20 00:34:13;;;;;;;;;23.33;22.00;;;;;2.95;61.71;102437.34;5053445;28;45537;-77
2024/01/20 00:36:38;;;;;;;;;30.00;23.00;;;;;2.63;61.49;102396.47;5052278;28;45347;-77
2024/01/20 00:39:04;;;;;;;;;28.67;22.00;;;;;2.70;61.32;102400.59;5052493;28;45328;-77
2024/01/20 00:41:30;;;;;;;;;20.33;19.67;;;;;3.02;61.02;102441.50;5053837;28;45167;-79
2024/01/20 00:43:55;;;;;;;;;22.33;21.67;;;;;2.94;60.92;102419.88;5052650;28;45259;-79
2024/01/20 00:46:21;;;;;;;;;29.00;24.33;;;;;2.91;61.25;102449.75;5053985;28;45210;-78
2024/01/20 00:48:46;;;;;;;;;28.00;25.67;;;;;2.81;61.23;102460.63;5054343;28;44921;-77
2024/01/20 00:51:12;;;;;;;;;25.00;21.00;;;;;2.71;61.83;102441.69;5054670;28;44839;-79
2024/01/20 00:53:37;;;;;;;;;26.33;21.33;;;;;2.86;61.57;102461.34;5055283;28;45143;-76
2024/01/20 00:56:03;;;;;;;;;27.00;22.00;;;;;2.55;61.71;102415.09;5037196;28;45215;-79
2024/01/20 00:58:28;;;;;;;;;21.00;17.33;;;;;2.16;61.04;102356.06;5054117;28;45113;-77
2024/01/20 01:00:54;;;;;;;;;17.00;16.00;;;;;2.78;61.62;102471.22;5034871;28;45251;-78
2024/01/20 01:03:19;;;;;;;;;28.67;22.33;;;;;2.52;60.92;102430.09;5054108;28;45075;-76
2024/01/20 01:05:45;;;;;;;;;23.33;18.67;;;;;2.64;62.06;102469.94;5036059;28;45291;-78
2024/01/20 01:08:10;;;;;;;;;17.00;15.67;;;;;2.59;61.87;102455.22;5032871;28;45278;-79
2024/01/20 01:10:36;;;;;;;;;20.67;17.67;;;;;2.57;60.95;102436.88;5047518;28;45062;-80
2024/01/20 01:13:01;;;;;;;;;17.33;13.67;;;;;2.69;61.55;102462.75;5041965;28;45301;-78
2024/01/20 01:15:29;;;;;;;;;18.67;15.67;;;;;2.71;61.67;102467.94;5051711;28;45307;-79
2024/01/20 01:17:54;;;;;;;;;22.33;19.00;;;;;2.46;61.25;102441.66;5053301;28;45250;-79
2024/01/20 01:20:19;;;;;;;;;29.33;22.00;;;;;2.53;61.95;102466.78;5054725;28;45036;-78
2024/01/20 01:22:45;;;;;;;;;27.00;23.00;;;;;2.49;62.07;102469.56;5057506;28;45736;-81
2024/01/20 01:25:10;;;;;;;;;24.00;21.33;;;;;2.03;61.54;102393.19;5059911;28;45157;-78
2024/01/20 01:27:35;;;;;;;;;17.67;15.33;;;;;2.46;61.67;102464.44;5053613;28;44912;-77
2024/01/20 01:30:01;;;;;;;;;17.33;16.00;;;;;2.37;61.75;102452.44;5054938;28;45104;-81
2024/01/20 01:32:26;;;;;;;;;25.67;19.67;;;;;2.25;62.05;102432.72;5041218;28;46860;-77
2024/01/20 01:34:52;;;;;;;;;20.33;20.33;;;;;2.27;62.22;102432.66;5053892;28;45318;-80
2024/01/20 01:37:17;;;;;;;;;29.33;24.33;;;;;2.38;61.78;102452.38;5052512;28;44930;-78
2024/01/20 01:39:42;;;;;;;;;19.00;18.67;;;;;2.54;62.09;102457.16;5052736;28;45280;-77
2024/01/20 01:42:09;;;;;;;;;20.33;19.33;;;;;1.97;61.81;102367.13;5053727;28;45780;-78
2024/01/20 01:44:34;;;;;;;;;23.00;20.00;;;;;2.68;61.43;102471.53;5036336;28;45238;-78
2024/01/20 01:47:00;;;;;;;;;20.00;18.33;;;;;2.68;61.32;102471.53;5053728;28;45344;-78
2024/01/20 01:49:26;;;;;;;;;23.33;18.00;;;;;2.69;61.65;102477.66;5058611;28;45483;-78
2024/01/20 01:51:52;;;;;;;;;19.33;17.33;;;;;2.78;60.89;102485.22;5056224;28;45203;-83
2024/01/20 01:54:21;;;;;;;;;17.33;17.33;;;;;2.66;61.02;102454.97;5055635;28;45005;-80
2024/01/20 01:56:50;;;;;;;;;18.33;16.67;;;;;2.59;60.92;102452.59;5056857;28;44911;-78
2024/01/20 01:59:16;;;;;;;;;23.33;18.33;;;;;2.87;60.84;102490.16;5058063;28;45185;-80
2024/01/20 02:01:41;;;;;;;;;21.33;20.33;;;;;2.93;60.21;102483.84;5054541;28;46885;-79
2024/01/20 02:04:07;;;;;;;;;24.67;20.33;;;;;2.84;60.51;102487.66;5055399;28;45016;-76
2024/01/20 02:06:33;;;;;;;;;27.50;23.50;;;;;2.78;61.09;102484.34;5053892;28;45164;-80
2024/01/20 02:08:58;;;;;;;;;27.67;22.00;;;;;2.58;62.17;102464.00;5054721;28;45100;-81
2024/01/20 02:11:26;;;;;;;;;26.00;22.00;;;;;2.81;61.32;102497.41;5055303;28;45294;-78
2024/01/20 02:13:52;;;;;;;;;19.67;15.00;;;;;2.78;60.58;102494.84;5054400;28;44958;-81
2024/01/20 02:16:18;;;;;;;;;20.00;18.00;;;;;2.75;61.10;102499.31;5052959;28;45131;-79
2024/01/20 02:18:44;;;;;;;;;18.33;18.00;;;;;2.11;60.91;102385.06;5053957;28;45026;-80
2024/01/20 02:21:09;;;;;;;;;21.33;18.67;;;;;2.74;61.30;102491.47;5053280;28;45043;-79
2024/01/20 02:23:40;;;;;;;;;26.33;23.00;;;;;2.73;61.33;102485.38;5053919;28;45138;-78
2024/01/20 02:26:06;;;;;;;;;19.67;19.67;;;;;2.83;61.17;102485.06;5054753;28;44919;-79
2024/01/20 02:28:32;;;;;;;;;23.00;19.67;;;;;2.86;60.63;102474.47;5054278;28;45100;-78
2024/01/20 02:30:57;;;;;;;;;26.67;22.00;;;;;2.98;60.37;102489.78;5053120;28;45138;-79
2024/01/20 02:33:22;;;;;;;;;23.00;21.67;;;;;2.22;60.39;102382.97;5053812;28;44926;-80
2024/01/20 02:35:48;;;;;;;;;23.33;18.00;;;;;2.88;60.48;102499.75;5053792;28;45002;-81
2024/01/20 02:38:13;;;;;;;;;17.67;16.67;;;;;2.85;60.91;102496.38;5053728;28;45212;-80
2024/01/20 02:40:38;;;;;;;;;21.00;19.33;;;;;2.44;60.75;102422.47;5035367;28;47173;-79
2024/01/20 02:43:04;;;;;;;;;16.33;16.33;;;;;2.87;60.86;102503.31;5057083;28;45171;-77
2024/01/20 02:45:29;;;;;;;;;19.33;17.00;;;;;2.79;60.54;102470.31;5042354;28;44619;-79
2024/01/20 02:47:55;;;;;;;;;23.00;17.33;;;;;2.93;60.91;102503.09;5052432;28;45104;-79
2024/01/20 02:50:21;;;;;;;;;21.33;18.67;;;;;2.97;60.83;102506.47;5051651;28;45023;-79
2024/01/20 02:52:46;;;;;;;;;28.00;22.33;;;;;2.86;60.43;102490.22;5053041;28;45556;-81
2024/01/20 02:55:11;;;;;;;;;23.00;19.67;;;;;2.48;59.94;102426.72;5033674;28;44961;-80
2024/01/20 02:57:37;;;;;;;;;23.00;19.33;;;;;2.68;60.54;102497.81;5050674;28;45514;-78
2024/01/20 03:00:04;;;;;;;;;22.33;17.67;;;;;2.61;60.71;102477.91;5052995;28;45166;-78
2024/01/20 03:02:29;;;;;;;;;20.33;19.33;;;;;2.56;60.74;102464.06;5050258;28;45264;-80
2024/01/20 03:05:00;;;;;;;;;21.00;18.00;;;;;2.43;60.09;102433.88;5052293;28;45100;-80
2024/01/20 03:07:25;;;;;;;;;30.00;22.00;;;;;1.75;59.77;102347.75;5052270;28;45311;-78
2024/01/20 03:09:51;;;;;;;;;14.33;14.33;;;;;2.09;59.69;102400.84;5050921;28;44910;-79
2024/01/20 03:12:16;;;;;;;;;21.67;18.00;;;;;2.24;59.80;102427.53;5043444;28;45170;-78
2024/01/20 03:14:41;;;;;;;;;25.67;21.67;;;;;2.65;60.01;102497.06;5041598;28;45424;-79
2024/01/20 03:17:07;;;;;;;;;25.00;20.67;;;;;2.53;60.39;102500.91;5049469;28;45198;-80
2024/01/20 03:19:32;;;;;;;;;23.00;21.33;;;;;2.37;59.98;102497.06;5051305;28;45720;-79
2024/01/20 03:21:57;;;;;;;;;28.67;22.67;;;;;2.29;60.56;102494.69;5050630;28;45191;-79
2024/01/20 03:24:24;;;;;;;;;21.00;20.00;;;;;1.95;60.68;102452.03;5049281;28;45211;-79
2024/01/20 03:26:50;;;;;;;;;26.00;17.00;;;;;1.63;61.00;102398.81;5048429;28;45195;-79
2024/01/20 03:29:16;;;;;;;;;26.33;19.67;;;;;2.07;61.48;102476.13;5049211;28;45619;-79
2024/01/20 03:31:41;;;;;;;;;27.33;21.33;;;;;2.10;61.22;102493.53;5050086;28;45086;-79
2024/01/20 03:34:08;;;;;;;;;28.33;23.33;;;;;2.27;61.18;102508.78;5046486;28;45205;-77
2024/01/20 03:36:34;;;;;;;;;21.33;17.00;;;;;2.11;61.20;102476.88;5051195;28;45091;-76
2024/01/20 03:38:59;;;;;;;;;23.67;21.67;;;;;2.37;61.20;102504.94;5050785;28;46227;-77
2024/01/20 03:41:25;;;;;;;;;20.33;16.33;;;;;2.10;61.41;102452.41;5033808;28;44927;-77
2024/01/20 03:43:50;;;;;;;;;20.67;17.67;;;;;2.41;60.98;102503.97;5050930;28;45628;-75
2024/01/20 03:46:18;;;;;;;;;25.00;20.33;;;;;2.48;60.30;102510.72;5051155;28;45066;-78
2024/01/20 03:48:44;;;;;;;;;26.00;21.33;;;;;2.47;60.86;102508.16;5022860;28;46793;-78
2024/01/20 03:51:09;;;;;;;;;23.33;22.00;;;;;2.00;60.73;102418.63;5052043;28;45469;-76
2024/01/20 03:53:35;;;;;;;;;23.00;20.67;;;;;2.32;60.21;102483.22;5020571;28;45151;-80
2024/01/20 03:56:03;;;;;;;;;22.67;21.00;;;;;1.58;60.81;102384.09;5037959;28;44983;-76
2024/01/20 03:58:29;;;;;;;;;17.33;16.33;;;;;2.25;60.86;102502.72;5053822;28;45056;-78
2024/01/20 04:00:54;;;;;;;;;21.67;18.00;;;;;2.26;60.64;102507.06;5026247;28;45156;-74
2024/01/20 04:03:19;;;;;;;;;21.33;21.33;;;;;2.19;60.36;102489.75;5016126;28;45165;-79
2024/01/20 04:05:47;;;;;;;;;22.00;17.33;;;;;2.31;60.83;102498.13;5019906;28;44991;-77
2024/01/20 04:08:12;;;;;;;;;23.33;19.33;;;;;2.22;60.64;102494.94;4995983;28;47177;-80
2024/01/20 04:10:38;;;;;;;;;16.33;15.00;;;;;2.07;61.07;102468.25;5015251;28;45086;-77
2024/01/20 04:13:03;;;;;;;;;27.00;23.67;;;;;2.28;60.13;102507.88;5016402;28;45326;-78
2024/01/20 04:15:28;;;;;;;;;22.33;18.00;;;;;2.31;60.33;102513.00;5016276;28;45311;-79
2024/01/20 04:17:54;;;;;;;;;22.33;19.67;;;;;2.32;60.20;102512.97;5015566;28;45149;-80
2024/01/20 04:20:20;;;;;;;;;18.67;16.67;;;;;1.87;60.74;102449.66;5014316;28;45213;-78
2024/01/20 04:22:46;;;;;;;;;15.67;15.67;;;;;2.28;60.81;102513.09;4985738;28;45323;-78
2024/01/20 04:25:12;;;;;;;;;18.33;18.33;;;;;2.17;60.29;102478.47;4995563;28;45078;-77
2024/01/20 04:27:40;;;;;;;;;24.33;21.33;;;;;2.07;60.57;102457.75;5000649;28;47036;-77
2024/01/20 04:30:09;;;;;;;;;20.67;17.67;;;;;2.35;60.18;102502.34;5033765;28;45526;-77
2024/01/20 04:32:36;;;;;;;;;20.67;18.33;;;;;2.26;60.59;102488.69;5035348;28;45165;-78
2024/01/20 04:35:02;;;;;;;;;19.67;16.67;;;;;2.46;60.04;102514.31;5037314;28;45243;-76
2024/01/20 04:37:27;;;;;;;;;18.67;17.00;;;;;2.32;60.00;102499.84;5031880;28;46475;-78
2024/01/20 04:39:52;;;;;;;;;21.67;20.67;;;;;1.91;60.26;102445.16;5056560;28;44899;-77
2024/01/20 04:42:18;;;;;;;;;25.33;20.33;;;;;2.07;59.71;102468.25;5037292;28;44984;-77
2024/01/20 04:44:43;;;;;;;;;22.67;19.00;;;;;2.31;60.08;102507.75;5056952;28;45322;-80
2024/01/20 04:47:08;;;;;;;;;18.33;18.33;;;;;1.96;59.88;102453.75;5056678;28;45165;-80
2024/01/20 04:49:34;;;;;;;;;19.00;17.00;;;;;2.11;60.21;102463.78;5056173;28;45051;-77
2024/01/20 04:52:01;;;;;;;;;17.67;14.67;;;;;2.04;60.11;102457.88;5037435;28;45022;-79
2024/01/20 04:54:28;;;;;;;;;18.67;14.33;;;;;2.39;60.12;102521.50;5047546;28;45199;-79
2024/01/20 04:56:53;;;;;;;;;18.00;16.67;;;;;2.37;59.57;102528.56;5056872;28;45825;-77
2024/01/20 04:59:18;;;;;;;;;17.00;15.33;;;;;2.01;59.83;102473.72;5057523;28;45030;-79
2024/01/20 05:01:45;;;;;;;;;16.33;16.00;;;;;2.27;60.52;102524.50;5056377;28;45146;-79
2024/01/20 05:04:11;;;;;;;;;22.33;14.00;;;;;2.20;60.22;102536.94;5053891;28;45299;-77
2024/01/20 05:06:37;;;;;;;;;23.00;18.67;;;;;2.13;60.63;102533.66;5036522;28;46624;-80
2024/01/20 05:09:02;;;;;;;;;21.67;17.67;;;;;1.66;60.72;102460.78;5038872;28;45113;-78
2024/01/20 05:11:28;;;;;;;;;20.67;13.67;;;;;2.06;60.98;102534.75;5058287;28;44932;-80
2024/01/20 05:13:53;;;;;;;;;19.67;12.33;;;;;2.06;60.13;102542.63;5056468;28;44866;-79
2024/01/20 05:16:19;;;;;;;;;18.67;16.67;;;;;2.09;60.33;102533.81;5054208;28;45103;-79
2024/01/20 05:18:44;;;;;;;;;17.00;16.00;;;;;1.87;61.12;102496.00;5054013;28;45274;-79
2024/01/20 05:21:15;;;;;;;;;16.33;13.33;;;;;1.89;60.75;102510.78;5050466;28;45063;-78
2024/01/20 05:23:41;;;;;;;;;11.33;11.33;;;;;2.03;60.97;102534.84;5023701;28;45188;-78
2024/01/20 05:26:06;;;;;;;;;18.67;16.00;;;;;1.71;60.66;102477.22;5051898;28;45132;-79
2024/01/20 05:28:32;;;;;;;;;19.33;15.33;;;;;2.01;60.67;102541.06;5015194;28;44978;-82
2024/01/20 05:30:58;;;;;;;;;19.33;14.00;;;;;2.01;60.49;102530.56;5033376;28;45137;-80
2024/01/20 05:33:23;;;;;;;;;15.67;13.00;;;;;1.26;61.15;102409.50;5033206;28;45104;-78
2024/01/20 05:35:49;;;;;;;;;21.00;17.67;;;;;1.91;60.96;102522.09;5031470;28;45483;-78
2024/01/20 05:38:14;;;;;;;;;20.00;16.00;;;;;1.93;60.26;102525.50;5032217;28;45176;-79
2024/01/20 05:40:40;;;;;;;;;20.33;16.67;;;;;1.92;60.76;102534.28;5030255;28;45346;-80
2024/01/20 05:43:06;;;;;;;;;16.00;14.00;;;;;1.18;60.61;102419.34;5023647;28;45369;-80
2024/01/20 05:45:31;;;;;;;;;18.67;14.00;;;;;1.83;61.14;102526.72;5049462;28;45572;-79
2024/01/20 05:47:57;;;;;;;;;21.33;16.00;;;;;1.82;61.11;102525.00;5053431;28;44954;-78
2024/01/20 05:50:22;;;;;;;;;15.33;14.00;;;;;1.20;60.65;102425.38;5053171;28;45652;-80
2024/01/20 05:52:50;;;;;;;;;24.33;19.00;;;;;1.64;60.76;102494.06;5054619;28;45093;-79
2024/01/20 05:55:15;;;;;;;;;21.00;16.67;;;;;1.84;61.29;102528.41;5053432;28;45159;-80
2024/01/20 05:57:40;;;;;;;;;21.67;16.00;;;;;1.90;61.39;102541.34;5053483;28;45177;-79
2024/01/20 06:00:06;;;;;;;;;20.33;17.00;;;;;1.70;61.00;102504.34;5044470;28;45653;-78
2024/01/20 06:02:38;;;;;;;;;22.00;20.33;;;;;1.77;61.01;102519.00;5054347;28;45168;-80
2024/01/20 06:05:07;;;;;;;;;15.00;15.00;;;;;1.40;61.03;102457.16;5052349;28;45278;-79
2024/01/20 06:07:32;;;;;;;;;18.33;15.33;;;;;1.53;60.89;102482.09;5037328;28;44939;-80
2024/01/20 06:09:58;;;;;;;;;17.67;16.00;;;;;1.85;61.29;102550.25;5034917;28;45230;-79
2024/01/20 06:12:23;;;;;;;;;17.67;16.00;;;;;1.87;61.61;102544.06;5043257;28;45557;-79
2024/01/20 06:14:48;;;;;;;;;16.67;16.67;;;;;1.40;61.14;102465.03;5053285;28;45654;-78
2024/01/20 06:17:14;;;;;;;;;21.33;15.67;;;;;1.42;61.61;102460.59;5051118;28;45395;-78
2024/01/20 06:19:39;;;;;;;;;16.33;15.33;;;;;1.88;60.94;102532.66;5051831;28;45144;-79
2024/01/20 06:22:04;;;;;;;;;19.67;18.67;;;;;1.04;61.00;102404.03;5045762;28;45566;-78
2024/01/20 06:24:30;;;;;;;;;16.67;14.00;;;;;1.81;61.48;102536.38;5050864;28;45310;-78
2024/01/20 06:26:56;;;;;;;;;23.00;19.33;;;;;1.79;61.76;102538.16;5052604;28;45326;-80
2024/01/20 06:29:21;;;;;;;;;25.67;19.33;;;;;1.76;61.40;102554.00;5054631;28;45098;-80
2024/01/20 06:31:49;;;;;;;;;38.25;37.50;;;;;1.11;61.64;102428.28;5055800;28;45119;-81
2024/01/20 06:34:15;;;;;;;;;28.67;23.67;;;;;1.19;61.98;102436.75;5052077;28;45032;-82
2024/01/20 06:36:41;;;;;;;;;22.33;15.33;;;;;1.73;61.63;102533.09;5052204;28;44963;-81
2024/01/20 06:39:06;;;;;;;;;21.33;17.67;;;;;1.68;61.94;102532.38;5053436;28;45252;-79
2024/01/20 06:41:32;;;;;;;;;21.00;19.67;;;;;1.70;61.93;102539.28;5074709;28;44852;-78
2024/01/20 06:43:57;;;;;;;;;19.00;15.00;;;;;1.71;62.07;102548.03;5065874;28;45267;-79
2024/01/20 06:46:23;;;;;;;;;19.00;19.00;;;;;1.73;62.09;102556.69;5057471;28;44966;-79
2024/01/20 06:48:50;;;;;;;;;20.00;19.00;;;;;1.50;61.81;102502.28;5051069;28;45117;-82
2024/01/20 06:51:15;;;;;;;;;21.33;18.67;;;;;1.28;62.22;102485.44;5054995;28;45326;-79
2024/01/20 06:53:42;;;;;;;;;15.67;11.00;;;;;1.76;61.69;102561.84;5055691;28;44982;-79
2024/01/20 06:56:07;;;;;;;;;19.33;18.33;;;;;1.67;61.63;102554.25;5035429;28;45089;-78
2024/01/20 06:58:34;;;;;;;;;21.67;18.33;;;;;1.48;61.87;102540.78;5055381;28;45118;-80
2024/01/20 07:01:00;;;;;;;;;26.00;21.67;;;;;1.66;62.17;102571.75;5055019;28;45022;-79
2024/01/20 07:03:25;;;;;;;;;22.00;18.00;;;;;1.08;61.78;102480.75;5051694;28;45465;-80
2024/01/20 07:05:51;;;;;;;;;17.67;15.33;;;;;1.68;62.73;102580.44;5051232;28;45201;-78
2024/01/20 07:08:16;;;;;;;;;19.33;16.67;;;;;1.06;61.95;102487.78;5053626;28;45174;-79
2024/01/20 07:10:42;;;;;;;;;25.33;21.33;;;;;1.62;61.71;102585.84;5051238;28;44935;-80
2024/01/20 07:13:07;;;;;;;;;19.33;16.33;;;;;1.38;62.04;102561.13;5051290;28;46549;-80
2024/01/20 07:15:33;;;;;;;;;17.33;15.67;;;;;1.49;62.08;102574.81;5055181;28;44911;-80
2024/01/20 07:17:58;;;;;;;;;24.67;17.67;;;;;1.60;62.27;102586.75;5054886;28;44910;-80
2024/01/20 07:20:24;;;;;;;;;21.67;17.00;;;;;1.45;62.04;102551.38;5054470;28;45155;-80
2024/01/20 07:22:50;;;;;;;;;19.67;15.33;;;;;1.49;62.10;102551.25;5054804;28;45129;-77
2024/01/20 07:25:16;;;;;;;;;18.67;17.00;;;;;1.24;62.19;102510.88;5055586;28;44968;-80
2024/01/20 07:27:42;;;;;;;;;17.67;16.67;;;;;1.72;62.09;102587.31;5056930;28;45163;-81
2024/01/20 07:30:08;;;;;;;;;19.00;17.00;;;;;1.15;62.27;102492.78;5054236;28;45200;-80
2024/01/20 07:32:34;;;;;;;;;22.00;19.67;;;;;1.76;61.98;102593.31;5056023;28;45390;-81
2024/01/20 07:34:59;;;;;;;;;20.67;17.67;;;;;1.40;62.16;102540.13;5055343;28;45012;-79
2024/01/20 07:37:24;;;;;;;;;16.33;14.67;;;;;1.74;61.73;102584.63;5055998;28;45205;-82
2024/01/20 07:39:50;;;;;;;;;19.67;16.00;;;;;1.25;61.68;102503.88;5056907;28;45086;-80
2024/01/20 07:42:15;;;;;;;;;23.67;17.67;;;;;1.25;61.46;102496.88;5058020;28;45238;-81
2024/01/20 07:44:41;;;;;;;;;18.00;16.00;;;;;1.72;61.92;102574.19;5056196;28;45083;-82
2024/01/20 07:47:06;;;;;;;;;14.67;14.67;;;;;1.61;62.10;102554.44;5055601;28;44950;-81
2024/01/20 07:49:32;;;;;;;;;15.33;13.00;;;;;1.77;61.71;102584.56;5037343;28;45406;-80
2024/01/20 07:51:57;;;;;;;;;26.67;20.00;;;;;1.56;62.02;102553.69;5055068;28;45192;-80
2024/01/20 07:54:22;;;;;;;;;18.00;15.67;;;;;1.80;61.90;102581.84;5052886;28;45585;-80
2024/01/20 07:56:48;;;;;;;;;21.33;20.00;;;;;1.81;61.19;102594.94;5053607;28;45019;-81
2024/01/20 07:59:13;;;;;;;;;27.00;17.00;;;;;1.75;61.58;102588.97;5053698;28;45246;-82
2024/01/20 08:01:39;;;;;;;;;21.00;15.67;;;;;1.82;62.16;102609.75;5053483;28;45699;-80
2024/01/20 08:04:05;;;;;;;;;21.33;20.67;;;;;1.05;60.93;102472.97;5054652;28;45378;-79
2024/01/20 08:06:35;;;;;;;;;25.00;19.00;;;;;1.67;61.21;102583.09;5057521;28;44943;-81
2024/01/20 08:09:00;;;;;;;;;20.33;20.00;;;;;1.88;61.03;102608.72;5055366;28;45363;-78
2024/01/20 08:11:26;;;;;;;;;22.67;18.67;;;;;1.28;61.49;102504.66;5057030;28;45455;-78
2024/01/20 08:13:51;;;;;;;;;22.33;20.00;;;;;1.82;61.58;102622.88;5057137;28;44962;-80
2024/01/20 08:16:16;;;;;;;;;18.67;16.33;;;;;1.77;61.59;102597.66;5054610;28;45391;-80
2024/01/20 08:18:42;;;;;;;;;15.67;15.00;;;;;1.51;61.51;102545.94;5054188;28;45195;-82
2024/01/20 08:21:07;;;;;;;;;20.67;18.00;;;;;1.90;61.60;102595.56;5055307;28;45945;-80
2024/01/20 08:23:33;;;;;;;;;17.00;12.00;;;;;1.71;61.25;102564.59;5055498;28;45203;-81
2024/01/20 08:25:59;;;;;;;;;27.00;22.33;;;;;2.10;61.24;102614.22;5052822;28;45151;-81
2024/01/20 08:28:24;;;;;;;;;24.00;19.33;;;;;1.68;61.06;102540.25;5054693;28;45168;-80
2024/01/20 08:30:50;;;;;;;;;24.33;20.33;;;;;2.01;60.59;102599.63;5054699;28;45595;-79
2024/01/20 08:33:15;;;;;;;;;21.00;17.00;;;;;2.19;60.88;102618.34;5054837;28;45065;-81
2024/01/20 08:35:40;;;;;;;;;30.33;17.33;;;;;2.11;60.93;102608.06;5054281;28;45293;-81
2024/01/20 08:38:06;;;;;;;;;23.33;20.67;;;;;2.20;60.40;102620.91;5053060;28;45002;-80
2024/01/20 08:40:31;;;;;;;;;20.67;19.33;;;;;2.21;60.66;102622.66;5054428;28;45472;-79
2024/01/20 08:42:57;;;;;;;;;25.00;17.67;;;;;2.17;61.08;102614.91;5055133;28;46027;-81
2024/01/20 08:45:22;;;;;;;;;26.67;20.33;;;;;1.94;60.92;102558.72;5056952;28;45453;-79
2024/01/20 08:47:48;;;;;;;;;12.00;10.00;;;;;2.21;60.70;102595.56;5055931;28;45295;-77
2024/01/20 08:50:14;;;;;;;;;29.67;24.00;;;;;2.65;59.66;102623.94;5035687;28;45741;-81
2024/01/20 08:52:39;;;;;;;;;23.33;19.67;;;;;2.36;59.49;102521.59;5034754;28;45284;-81
2024/01/20 08:55:05;;;;;;;;;24.00;23.67;;;;;3.22;58.98;102622.16;5037999;28;45703;-80
2024/01/20 08:57:32;;;;;;;;;26.00;21.33;;;;;3.52;57.63;102607.94;5054779;28;45137;-82
2024/01/20 08:59:57;;;;;;;;;26.67;19.00;;;;;3.79;57.25;102616.63;5054893;28;45881;-80
2024/01/20 09:02:23;;;;;;;;;24.33;18.33;;;;;3.42;56.55;102521.56;5037275;28;45235;-79
2024/01/20 09:04:48;;;;;;;;;25.33;19.33;;;;;3.34;56.15;102462.22;5055822;28;45489;-81
2024/01/20 09:07:14;;;;;;;;;23.33;21.00;;;;;4.38;55.70;102629.38;5042851;28;45086;-82
2024/01/20 09:09:39;;;;;;;;;24.67;21.33;;;;;4.66;54.94;102608.13;5055187;28;45702;-84
2024/01/20 09:12:05;;;;;;;;;21.67;21.67;;;;;5.10;53.95;102598.41;5057220;28;45120;-82
2024/01/20 09:14:30;;;;;;;;;24.00;21.00;;;;;5.83;52.25;102612.03;5056677;28;45159;-83
2024/01/20 09:16:56;;;;;;;;;30.67;21.33;;;;;6.82;50.18;102604.81;5045528;28;44927;-82
2024/01/20 09:19:21;;;;;;;;;24.33;21.00;;;;;8.07;47.02;102583.34;5049018;28;45774;-83
2024/01/20 09:21:47;;;;;;;;;26.33;24.33;;;;;9.45;44.71;102581.69;5055028;28;45111;-83
2024/01/20 09:24:12;;;;;;;;;22.67;19.33;;;;;10.46;42.55;102597.56;5059083;28;44908;-83
2024/01/20 09:26:38;;;;;;;;;22.67;19.67;;;;;10.66;40.51;102557.25;5059196;28;44884;-81
2024/01/20 09:29:03;;;;;;;;;24.33;19.00;;;;;9.47;41.57;102508.13;5054105;28;45839;-81
2024/01/20 09:31:29;;;;;;;;;20.00;19.00;;;;;8.87;42.23;102576.28;5030535;28;45511;-82
2024/01/20 09:33:54;;;;;;;;;20.33;19.67;;;;;8.12;43.79;102581.28;5048583;28;44700;-78
2024/01/20 09:36:19;;;;;;;;;20.67;20.00;;;;;7.11;45.82;102510.78;5054768;28;46615;-80
2024/01/20 09:38:45;;;;;;;;;20.00;18.67;;;;;7.24;46.39;102586.81;5054440;28;45052;-81
2024/01/20 09:41:11;;;;;;;;;20.00;18.67;;;;;6.72;47.35;102591.16;5055095;28;44998;-81
2024/01/20 09:43:38;;;;;;;;;24.33;20.67;;;;;6.30;47.75;102587.00;5054672;28;45439;-82
2024/01/20 09:46:05;;;;;;;;;20.00;18.67;;;;;5.68;48.74;102529.09;5056006;28;45171;-82
2024/01/20 09:48:31;;;;;;;;;23.00;19.00;;;;;5.82;49.40;102594.47;5053369;28;45642;-80
2024/01/20 09:50:58;;;;;;;;;26.00;24.67;;;;;5.44;49.79;102573.25;5055666;28;45050;-83
2024/01/20 09:53:24;;;;;;;;;24.33;19.00;;;;;5.41;51.02;102570.75;5054291;28;45032;-80
2024/01/20 09:55:50;;;;;;;;;20.33;17.67;;;;;4.87;50.21;102504.47;5053064;28;45175;-83
2024/01/20 09:58:17;;;;;;;;;26.00;21.00;;;;;4.78;50.74;102540.88;5054298;28;45525;-80
2024/01/20 10:00:43;;;;;;;;;24.00;21.00;;;;;4.63;51.81;102531.84;5053266;28;45141;-81
2024/01/20 10:03:11;;;;;;;;;24.33;21.00;;;;;4.81;52.35;102585.56;5054461;28;44951;-79
2024/01/20 10:05:37;;;;;;;;;26.00;19.67;;;;;4.60;52.04;102566.19;5054860;28;45161;-77
2024/01/20 10:08:04;;;;;;;;;23.00;18.33;;;;;4.63;53.03;102586.31;5050496;28;45516;-84
2024/01/20 10:10:31;;;;;;;;;23.00;18.67;;;;;3.91;53.34;102483.78;5054489;28;45366;-83
2024/01/20 10:12:57;;;;;;;;;17.67;15.00;;;;;4.41;52.85;102558.19;5018383;28;45039;-79
2024/01/20 10:15:27;;;;;;;;;19.67;18.00;;;;;4.40;52.95;102560.84;5053064;28;45056;-80
2024/01/20 10:17:55;;;;;;;;;26.00;19.67;;;;;4.43;52.71;102589.72;5051992;28;46794;-80
2024/01/20 10:20:25;;;;;;;;;25.67;20.33;;;;;4.27;52.89;102582.41;5032510;28;45306;-77
2024/01/20 10:22:51;;;;;;;;;24.67;19.33;;;;;4.12;53.31;102582.97;5049442;28;45319;-81
2024/01/20 10:25:20;;;;;;;;;27.33;25.67;;;;;3.94;53.42;102573.97;5066862;28;45476;-81
2024/01/20 10:27:47;;;;;;;;;26.67;20.00;;;;;3.82;53.88;102566.56;5051485;28;45672;-81
2024/01/20 10:30:15;;;;;;;;;23.67;19.00;;;;;3.73;54.25;102568.66;5072422;28;45186;-78
2024/01/20 10:32:41;;;;;;;;;19.67;18.33;;;;;3.35;54.49;102540.16;5054126;28;45207;-79
2024/01/20 10:35:10;;;;;;;;;23.67;20.67;;;;;3.56;54.12;102575.38;5053345;28;45180;-82
2024/01/20 10:37:42;;;;;;;;;24.00;21.33;;;;;3.59;54.95;102582.28;5052508;28;46178;-80
2024/01/20 10:40:13;;;;;;;;;27.00;23.33;;;;;2.88;55.14;102467.38;5051909;28;45117;-80
2024/01/20 10:42:54;;;;;;;;;19.67;19.00;;;;;3.48;54.99;102568.66;5051965;28;46202;-81
2024/01/20 10:45:22;;;;;;;;;26.67;24.67;;;;;3.15;55.29;102483.94;5060367;28;45414;-80
2024/01/20 10:47:59;;;;;;;;;23.67;21.67;;;;;3.79;54.70;102578.94;5054916;28;45513;-87
2024/01/20 10:50:25;;;;;;;;;27.67;22.33;;;;;3.61;55.24;102549.78;5055137;28;45481;-88
2024/01/20 10:52:58;;;;;;;;;25.00;23.00;;;;;2.91;54.94;102435.75;5037072;28;45564;-81
2024/01/20 10:55:24;;;;;;;;;23.33;21.33;;;;;2.98;55.03;102453.00;5052865;28;44955;-82
2024/01/20 10:57:52;;;;;;;;;28.67;26.00;;;;;3.51;55.42;102534.38;5039264;28;45620;-77
2024/01/20 11:00:18;;;;;;;;;30.33;24.33;;;;;3.25;54.66;102478.34;5051941;28;45112;-81
2024/01/20 11:02:45;;;;;;;;;26.67;24.00;;;;;3.92;55.19;102575.81;5051148;28;45040;-80
2024/01/20 11:05:18;;;;;;;;;27.33;24.67;;;;;3.82;55.37;102542.88;5054672;28;44855;-83
2024/01/20 11:08:12;;;;;;;;;32.67;24.33;;;;;3.76;54.91;102511.53;5051991;28;45919;-82
2024/01/20 11:10:45;;;;;;;;;33.67;28.67;;;;;4.09;55.23;102546.25;5034859;28;45524;-81